createdAt,value
2017-11-01T00:00:23.861Z,10.24
2017-11-01T00:01:33.810Z,10.24
2017-11-01T00:02:43.252Z,10.17
2017-11-01T00:03:53.077Z,10.2
2017-11-01T00:05:02.987Z,10.16
2017-11-01T00:06:13.233Z,10.2
2017-11-01T00:07:23.574Z,10.26
2017-11-01T00:08:33.845Z,10.2
2017-11-01T00:09:43.628Z,10.2
2017-11-01T00:10:53.031Z,10.28
2017-11-01T00:12:02.956Z,10.25
2017-11-01T00:13:13.615Z,10.14
2017-11-01T00:14:23.725Z,10.22
2017-11-01T00:15:33.858Z,10.22
2017-11-01T00:16:44.123Z,10.18
2017-11-01T00:17:54.233Z,10.13
2017-11-01T00:19:04.417Z,10.13
2017-11-01T00:20:14.404Z,10.18
2017-11-01T00:21:24.563Z,10.22
2017-11-01T00:22:35.144Z,10.17
2017-11-01T00:23:45.367Z,10.35
2017-11-01T00:24:55.530Z,10.29
2017-11-01T00:26:05.715Z,10.29
2017-11-01T00:27:16.274Z,10.29
2017-11-01T00:28:26.067Z,10.28
2017-11-01T00:29:36.427Z,10.31
2017-11-01T00:30:46.916Z,10.35
2017-11-01T00:31:56.301Z,10.28
2017-11-01T00:33:06.377Z,10.29
2017-11-01T00:34:16.085Z,10.34
2017-11-01T00:35:25.785Z,10.31
2017-11-01T00:36:35.786Z,10.31
2017-11-01T00:37:45.498Z,10.29
2017-11-01T00:38:55.873Z,10.25
2017-11-01T00:40:05.223Z,10.32
2017-11-01T00:41:14.897Z,10.28
2017-11-01T00:42:24.239Z,10.31
2017-11-01T00:43:34.283Z,10.36
2017-11-01T00:44:44.656Z,10.38
2017-11-01T00:45:54.367Z,10.32
2017-11-01T00:47:04.377Z,10.36
2017-11-01T00:48:13.714Z,10.35
2017-11-01T00:49:23.726Z,10.2
2017-11-01T00:50:33.401Z,10.29
2017-11-01T00:51:42.736Z,10.2
2017-11-01T00:52:52.755Z,10.25
2017-11-01T00:54:02.438Z,10.17
2017-11-01T00:55:11.779Z,10.16
2017-11-01T00:56:22.124Z,10.17
2017-11-01T00:57:31.801Z,10.25
2017-11-01T00:58:41.471Z,10.16
2017-11-01T00:59:51.144Z,10.24
2017-11-01T01:01:01.493Z,10.25
2017-11-01T01:02:11.505Z,10.25
2017-11-01T01:03:21.509Z,10.24
2017-11-01T01:04:31.856Z,10.14
2017-11-01T01:05:41.202Z,10.17
2017-11-01T01:06:51.545Z,10.1
2017-11-01T01:08:00.881Z,10.06
2017-11-01T01:09:10.563Z,10.17
2017-11-01T01:10:20.577Z,10.13
2017-11-01T01:11:29.933Z,10.09
2017-11-01T01:12:39.959Z,10.01
2017-11-01T01:13:49.628Z,10.07
2017-11-01T01:14:59.991Z,10.11
2017-11-01T01:16:09.664Z,10.1
2017-11-01T01:17:19.336Z,10.11
2017-11-01T01:18:29.010Z,10.14
2017-11-01T01:19:39.024Z,10.16
2017-11-01T01:20:49.051Z,10.18
2017-11-01T01:21:59.402Z,10.16
2017-11-01T01:23:09.410Z,10.2
2017-11-01T01:24:19.423Z,10.14
2017-11-01T01:25:28.764Z,10.18
2017-11-01T01:26:38.102Z,10.16
2017-11-01T01:27:47.772Z,10.11
2017-11-01T01:28:57.783Z,10.16
2017-11-01T01:30:07.452Z,10.14
2017-11-01T01:31:16.791Z,10.25
2017-11-01T01:32:26.465Z,10.31
2017-11-01T01:33:35.807Z,10.29
2017-11-01T01:34:45.487Z,10.31
2017-11-01T01:35:55.162Z,10.31
2017-11-01T01:37:04.836Z,10.24
2017-11-01T01:38:14.502Z,10.2
2017-11-01T01:39:24.508Z,10.18
2017-11-01T01:40:34.525Z,10.18
2017-11-01T01:41:43.526Z,10.26
2017-11-01T01:42:53.871Z,10.22
2017-11-01T01:44:03.886Z,10.29
2017-11-01T01:45:13.563Z,10.22
2017-11-01T01:46:23.564Z,10.28
2017-11-01T01:47:32.905Z,10.25
2017-11-01T01:48:43.243Z,10.25
2017-11-01T01:49:52.919Z,10.2
2017-11-01T01:51:02.925Z,10.2
2017-11-01T01:52:13.280Z,10.18
2017-11-01T01:53:22.956Z,10.24
2017-11-01T01:54:32.961Z,10.24
2017-11-01T01:55:42.966Z,10.29
2017-11-01T01:56:52.311Z,10.26
2017-11-01T01:58:01.985Z,10.24
2017-11-01T01:59:12.326Z,10.28
2017-11-01T02:00:22.332Z,10.31
2017-11-01T02:01:32.009Z,10.29
2017-11-01T02:02:42.345Z,10.2
2017-11-01T02:03:52.021Z,10.31
2017-11-01T02:05:01.700Z,10.31
2017-11-01T02:06:11.394Z,10.32
2017-11-01T02:07:21.753Z,10.39
2017-11-01T02:08:31.768Z,10.39
2017-11-01T02:09:41.768Z,10.31
2017-11-01T02:10:51.441Z,10.47
2017-11-01T02:12:01.111Z,10.34
2017-11-01T02:13:10.786Z,10.39
2017-11-01T02:14:20.462Z,10.38
2017-11-01T02:15:30.130Z,10.38
2017-11-01T02:16:40.477Z,10.38
2017-11-01T02:17:49.818Z,10.31
2017-11-01T02:18:59.821Z,10.34
2017-11-01T02:20:09.498Z,10.28
2017-11-01T02:21:19.165Z,10.29
2017-11-01T02:22:28.834Z,10.2
2017-11-01T02:23:38.502Z,10.22
2017-11-01T02:24:48.175Z,10.25
2017-11-01T02:25:57.514Z,10.32
2017-11-01T02:27:07.184Z,10.26
2017-11-01T02:28:17.535Z,10.26
2017-11-01T02:29:27.556Z,10.31
2017-11-01T02:30:37.227Z,10.25
2017-11-01T02:31:46.231Z,10.2
2017-11-01T02:32:55.903Z,10.25
2017-11-01T02:34:05.917Z,10.2
2017-11-01T02:35:15.589Z,10.18
2017-11-01T02:36:25.593Z,10.2
2017-11-01T02:37:35.292Z,10.16
2017-11-01T02:38:44.631Z,10.17
2017-11-01T02:39:54.310Z,10.26
2017-11-01T02:41:04.325Z,10.32
2017-11-01T02:42:46.417Z,10.34
2017-11-01T02:43:56.460Z,10.39
2017-11-01T02:45:06.477Z,10.29
2017-11-01T02:46:16.171Z,10.22
2017-11-01T02:47:26.537Z,10.29
2017-11-01T02:48:36.216Z,10.29
2017-11-01T02:49:45.929Z,10.25
2017-11-01T02:50:55.605Z,10.34
2017-11-01T02:52:05.287Z,10.28
2017-11-01T02:53:14.963Z,10.28
2017-11-01T02:54:24.980Z,10.29
2017-11-01T02:55:35.000Z,10.2
2017-11-01T02:56:44.006Z,10.13
2017-11-01T02:57:54.025Z,10.2
2017-11-01T02:59:04.043Z,10.14
2017-11-01T03:00:14.071Z,10.29
2017-11-01T03:01:23.747Z,10.2
2017-11-01T03:02:34.136Z,10.26
2017-11-01T03:03:44.152Z,10.26
2017-11-01T03:04:53.830Z,10.28
2017-11-01T03:06:03.850Z,10.29
2017-11-01T03:07:14.205Z,10.31
2017-11-01T03:08:23.892Z,10.31
2017-11-01T03:09:33.569Z,10.28
2017-11-01T03:10:43.247Z,10.31
2017-11-01T03:11:53.257Z,10.29
2017-11-01T03:13:02.934Z,10.26
2017-11-01T03:14:12.279Z,10.34
2017-11-01T03:15:22.293Z,10.34
2017-11-01T03:16:31.975Z,10.28
2017-11-01T03:17:40.978Z,10.31
2017-11-01T03:18:50.663Z,10.29
2017-11-01T03:20:00.342Z,10.29
2017-11-01T03:21:10.022Z,10.32
2017-11-01T03:22:20.108Z,10.34
2017-11-01T03:23:30.223Z,10.31
2017-11-01T03:24:39.943Z,10.31
2017-11-01T03:25:50.285Z,10.28
2017-11-01T03:27:00.299Z,10.26
2017-11-01T03:28:10.636Z,10.25
2017-11-01T03:29:20.665Z,10.31
2017-11-01T03:30:30.357Z,10.29
2017-11-01T03:31:40.035Z,10.24
2017-11-01T03:32:49.706Z,10.29
2017-11-01T03:33:59.721Z,10.39
2017-11-01T03:35:09.394Z,10.32
2017-11-01T03:36:19.752Z,10.25
2017-11-01T03:37:29.089Z,10.25
2017-11-01T03:38:39.100Z,10.31
2017-11-01T03:39:49.471Z,10.42
2017-11-01T03:40:59.478Z,10.39
2017-11-01T03:42:09.514Z,10.49
2017-11-01T03:43:19.205Z,10.35
2017-11-01T03:44:29.215Z,10.28
2017-11-01T03:45:38.553Z,10.31
2017-11-01T03:46:48.570Z,10.34
2017-11-01T03:47:58.579Z,10.29
2017-11-01T03:49:07.917Z,10.25
2017-11-01T03:50:18.271Z,10.31
2017-11-01T03:51:28.284Z,10.28
2017-11-01T03:52:38.298Z,10.28
2017-11-01T03:53:47.969Z,10.32
2017-11-01T03:54:57.651Z,10.29
2017-11-01T03:56:06.992Z,10.2
2017-11-01T03:57:17.019Z,10.26
2017-11-01T03:58:26.364Z,10.22
2017-11-01T03:59:36.039Z,10.25
2017-11-01T04:00:45.724Z,10.26
2017-11-01T04:01:55.743Z,10.25
2017-11-01T04:03:05.756Z,10.28
2017-11-01T04:04:16.101Z,10.31
2017-11-01T04:05:26.444Z,10.31
2017-11-01T04:06:35.451Z,10.31
2017-11-01T04:07:45.460Z,10.31
2017-11-01T04:08:54.809Z,10.26
2017-11-01T04:10:04.486Z,10.26
2017-11-01T04:11:14.172Z,10.29
2017-11-01T04:12:24.202Z,10.36
2017-11-01T04:13:33.926Z,10.36
2017-11-01T04:14:44.279Z,10.25
2017-11-01T04:15:54.630Z,10.29
2017-11-01T04:17:04.310Z,10.39
2017-11-01T04:18:13.650Z,10.35
2017-11-01T04:19:23.328Z,10.39
2017-11-01T04:20:33.016Z,10.44
2017-11-01T04:21:43.357Z,10.43
2017-11-01T04:22:52.703Z,10.39
2017-11-01T04:24:02.375Z,10.31
2017-11-01T04:25:12.055Z,10.31
2017-11-01T04:26:21.746Z,10.38
2017-11-01T04:27:31.769Z,10.29
2017-11-01T04:28:41.448Z,10.32
2017-11-01T04:29:50.456Z,10.34
2017-11-01T04:31:00.479Z,10.31
2017-11-01T04:32:10.163Z,10.28
2017-11-01T04:33:20.172Z,10.29
2017-11-01T04:34:30.249Z,10.28
2017-11-01T04:35:40.289Z,10.31
2017-11-01T04:36:50.637Z,10.34
2017-11-01T04:38:00.651Z,10.31
2017-11-01T04:39:10.659Z,10.38
2017-11-01T04:40:20.334Z,10.43
2017-11-01T04:41:30.672Z,10.36
2017-11-01T04:42:40.012Z,10.44
2017-11-01T04:43:50.033Z,10.44
2017-11-01T04:45:00.053Z,10.49
2017-11-01T04:46:09.394Z,10.51
2017-11-01T04:47:19.074Z,10.44
2017-11-01T04:48:28.080Z,10.49
2017-11-01T04:49:38.088Z,10.54
2017-11-01T04:50:48.458Z,10.58
2017-11-01T04:51:58.137Z,10.44
2017-11-01T04:53:08.147Z,10.51
2017-11-01T04:54:18.159Z,10.47
2017-11-01T04:55:28.520Z,10.46
2017-11-01T04:56:38.206Z,10.46
2017-11-01T04:57:48.241Z,10.47
2017-11-01T04:58:58.583Z,10.46
2017-11-01T05:00:08.944Z,10.54
2017-11-01T05:01:18.962Z,10.46
2017-11-01T05:02:28.973Z,10.57
2017-11-01T05:03:39.340Z,10.49
2017-11-01T05:04:49.023Z,10.51
2017-11-01T05:05:59.033Z,10.52
2017-11-01T05:07:09.057Z,10.58
2017-11-01T05:08:19.444Z,10.49
2017-11-01T05:09:29.450Z,10.62
2017-11-01T05:10:39.491Z,10.58
2017-11-01T05:11:49.510Z,10.57
2017-11-01T05:12:59.924Z,10.58
2017-11-01T05:14:09.602Z,10.58
2017-11-01T05:15:19.969Z,10.63
2017-11-01T05:16:29.995Z,10.69
2017-11-01T05:17:40.408Z,10.66
2017-11-01T05:18:50.088Z,10.6
2017-11-01T05:20:00.503Z,10.49
2017-11-01T05:21:10.869Z,10.47
2017-11-01T05:22:20.210Z,10.58
2017-11-01T05:23:30.266Z,10.49
2017-11-01T05:24:40.281Z,10.51
2017-11-01T05:25:50.631Z,10.47
2017-11-01T05:27:00.976Z,10.47
2017-11-01T05:28:10.658Z,10.44
2017-11-01T05:29:20.006Z,10.44
2017-11-01T05:30:30.019Z,10.49
2017-11-01T05:31:40.363Z,10.47
2017-11-01T05:32:50.379Z,10.52
2017-11-01T05:33:59.742Z,10.49
2017-11-01T05:35:09.083Z,10.42
2017-11-01T05:36:19.095Z,10.58
2017-11-01T05:37:29.105Z,10.55
2017-11-01T05:38:39.124Z,10.51
2017-11-01T05:39:49.479Z,10.47
2017-11-01T05:40:58.826Z,10.54
2017-11-01T05:42:08.502Z,10.49
2017-11-01T05:43:18.516Z,10.47
2017-11-01T05:44:28.195Z,10.49
2017-11-01T05:45:37.870Z,10.44
2017-11-01T05:46:47.878Z,10.38
2017-11-01T05:47:57.905Z,10.39
2017-11-01T05:49:07.252Z,10.39
2017-11-01T05:50:17.611Z,10.34
2017-11-01T05:51:27.299Z,10.34
2017-11-01T05:52:37.308Z,10.39
2017-11-01T05:53:47.316Z,10.35
2017-11-01T05:54:57.665Z,10.34
2017-11-01T05:56:07.339Z,10.34
2017-11-01T05:57:17.347Z,10.29
2017-11-01T05:58:26.357Z,10.36
2017-11-01T05:59:36.032Z,10.35
2017-11-01T06:00:46.377Z,10.29
2017-11-01T06:01:56.726Z,10.34
2017-11-01T06:03:06.741Z,10.28
2017-11-01T06:04:17.098Z,10.26
2017-11-01T06:05:27.119Z,10.34
2017-11-01T06:06:37.126Z,10.31
2017-11-01T06:07:47.146Z,10.28
2017-11-01T06:08:57.512Z,10.34
2017-11-01T06:10:07.184Z,10.31
2017-11-01T06:11:16.860Z,10.32
2017-11-01T06:12:26.533Z,10.43
2017-11-01T06:13:36.548Z,10.43
2017-11-01T06:14:46.564Z,10.35
2017-11-01T06:15:56.572Z,10.44
2017-11-01T06:17:06.618Z,10.46
2017-11-01T06:18:16.709Z,10.43
2017-11-01T06:19:26.738Z,10.44
2017-11-01T06:20:36.415Z,10.44
2017-11-01T06:21:46.477Z,10.52
2017-11-01T06:22:56.979Z,10.42
2017-11-01T06:24:07.058Z,10.52
2017-11-01T06:25:16.389Z,10.51
2017-11-01T06:26:26.427Z,10.55
2017-11-01T06:27:35.457Z,10.46
2017-11-01T06:28:45.471Z,10.57
2017-11-01T06:29:55.823Z,10.52
2017-11-01T06:31:05.507Z,10.51
2017-11-01T06:32:14.851Z,10.47
2017-11-01T06:33:25.195Z,10.49
2017-11-01T06:34:34.921Z,10.49
2017-11-01T06:35:44.938Z,10.46
2017-11-01T06:36:54.956Z,10.51
2017-11-01T06:38:03.963Z,10.49
2017-11-01T06:39:14.314Z,10.57
2017-11-01T06:40:23.990Z,10.57
2017-11-01T06:41:34.001Z,10.58
2017-11-01T06:42:44.039Z,10.55
2017-11-01T06:43:53.747Z,10.54
2017-11-01T06:45:04.147Z,10.58
2017-11-01T06:46:13.827Z,10.54
2017-11-01T06:47:23.837Z,10.65
2017-11-01T06:48:33.854Z,10.51
2017-11-01T06:49:43.874Z,10.57
2017-11-01T06:50:54.223Z,10.6
2017-11-01T06:52:04.576Z,10.57
2017-11-01T06:53:14.645Z,10.65
2017-11-01T06:54:24.652Z,10.63
2017-11-01T06:55:34.346Z,10.54
2017-11-01T06:56:44.061Z,10.54
2017-11-01T06:57:54.080Z,10.57
2017-11-01T06:59:04.499Z,10.57
2017-11-01T07:00:14.904Z,10.62
2017-11-01T07:01:24.253Z,10.63
2017-11-01T07:02:33.926Z,10.66
2017-11-01T07:03:47.840Z,10.52
2017-11-01T07:04:57.571Z,10.65
2017-11-01T07:06:07.736Z,10.65
2017-11-01T07:07:17.750Z,10.66
2017-11-01T07:08:27.544Z,10.66
2017-11-01T07:09:37.224Z,10.72
2017-11-01T07:10:46.295Z,10.68
2017-11-01T07:11:56.658Z,10.73
2017-11-01T07:13:06.390Z,10.68
2017-11-01T07:14:16.410Z,10.78
2017-11-01T07:15:26.770Z,10.75
2017-11-01T07:16:37.128Z,10.75
2017-11-01T07:17:47.478Z,10.78
2017-11-01T07:18:56.825Z,10.87
2017-11-01T07:20:06.839Z,10.87
2017-11-01T07:21:17.187Z,10.86
2017-11-01T07:22:27.196Z,10.8
2017-11-01T07:23:36.885Z,10.83
2017-11-01T07:24:46.899Z,10.83
2017-11-01T07:25:56.908Z,10.83
2017-11-01T07:27:07.253Z,10.84
2017-11-01T07:28:17.284Z,10.88
2017-11-01T07:29:27.018Z,10.87
2017-11-01T07:30:36.701Z,10.9
2017-11-01T07:31:46.715Z,10.86
2017-11-01T07:32:56.398Z,10.93
2017-11-01T07:34:06.742Z,10.83
2017-11-01T07:35:16.086Z,10.95
2017-11-01T07:36:25.766Z,10.93
2017-11-01T07:37:35.449Z,10.88
2017-11-01T07:38:45.136Z,10.9
2017-11-01T07:39:54.474Z,10.99
2017-11-01T07:41:04.486Z,11.05
2017-11-01T07:42:14.186Z,11.17
2017-11-01T07:43:23.871Z,11.21
2017-11-01T07:44:34.223Z,11.16
2017-11-01T07:45:43.942Z,11.16
2017-11-01T07:46:53.282Z,11.23
2017-11-01T07:48:02.959Z,11.11
2017-11-01T07:49:13.347Z,11.09
2017-11-01T07:50:23.029Z,11.09
2017-11-01T07:51:33.044Z,11.05
2017-11-01T07:52:42.719Z,11.03
2017-11-01T07:53:52.762Z,11.06
2017-11-01T07:55:02.437Z,11.08
2017-11-01T07:56:12.487Z,11.08
2017-11-01T07:57:22.537Z,11.2
2017-11-01T07:58:32.897Z,11.13
2017-11-01T07:59:42.239Z,11.16
2017-11-01T08:00:51.916Z,11.24
2017-11-01T08:02:01.934Z,11.3
2017-11-01T08:03:10.942Z,11.31
2017-11-01T08:04:20.956Z,11.28
2017-11-01T08:05:30.982Z,11.38
2017-11-01T08:06:40.997Z,11.41
2017-11-01T08:07:51.015Z,11.41
2017-11-01T08:09:01.038Z,11.49
2017-11-01T08:10:11.053Z,11.41
2017-11-01T08:11:20.748Z,11.36
2017-11-01T08:12:30.464Z,11.54
2017-11-01T08:13:40.817Z,11.67
2017-11-01T08:14:50.493Z,11.62
2017-11-01T08:16:00.515Z,11.75
2017-11-01T08:17:10.195Z,11.78
2017-11-01T08:18:19.887Z,11.79
2017-11-01T08:19:29.242Z,11.82
2017-11-01T08:20:39.267Z,11.9
2017-11-01T08:21:48.945Z,11.97
2017-11-01T08:22:57.953Z,12.07
2017-11-01T08:24:08.026Z,11.88
2017-11-01T08:25:17.716Z,11.78
2017-11-01T08:26:27.087Z,11.59
2017-11-01T08:27:37.152Z,11.6
2017-11-01T08:28:46.856Z,11.63
2017-11-01T08:29:56.265Z,11.64
2017-11-01T08:31:05.945Z,11.75
2017-11-01T08:32:15.289Z,11.81
2017-11-01T08:33:25.329Z,11.88
2017-11-01T08:34:35.022Z,11.9
2017-11-01T08:35:44.698Z,11.96
2017-11-01T08:36:54.722Z,11.97
2017-11-01T08:38:04.432Z,11.98
2017-11-01T08:39:14.195Z,11.94
2017-11-01T08:40:24.547Z,11.94
2017-11-01T08:41:34.245Z,11.93
2017-11-01T08:42:44.290Z,11.96
2017-11-01T08:43:54.397Z,11.84
2017-11-01T08:45:04.842Z,12.07
2017-11-01T08:46:14.184Z,12.05
2017-11-01T08:47:24.539Z,12.08
2017-11-01T08:48:34.227Z,12.25
2017-11-01T08:49:43.579Z,12.3
2017-11-01T08:50:53.923Z,12.36
2017-11-01T08:52:03.946Z,12.36
2017-11-01T08:53:13.630Z,12.38
2017-11-01T08:54:23.651Z,12.43
2017-11-01T08:55:33.787Z,12.23
2017-11-01T08:56:43.602Z,12.25
2017-11-01T08:57:53.359Z,12.15
2017-11-01T08:59:03.490Z,11.96
2017-11-01T09:00:13.713Z,11.96
2017-11-01T09:01:23.257Z,12.04
2017-11-01T09:02:32.991Z,11.98
2017-11-01T09:03:42.761Z,11.94
2017-11-01T09:04:52.937Z,12.08
2017-11-01T09:06:02.431Z,12.08
2017-11-01T09:07:12.983Z,11.98
2017-11-01T09:08:23.213Z,11.98
2017-11-01T09:09:33.392Z,12
2017-11-01T09:10:44.384Z,12.05
2017-11-01T09:11:54.762Z,12.05
2017-11-01T09:13:04.919Z,12.07
2017-11-01T09:14:14.517Z,11.9
2017-11-01T09:15:25.032Z,12.03
2017-11-01T09:16:34.892Z,12.04
2017-11-01T09:17:44.672Z,12.04
2017-11-01T09:18:54.461Z,12.03
2017-11-01T09:20:04.240Z,12.05
2017-11-01T09:21:14.072Z,12.12
2017-11-01T09:22:23.965Z,12.07
2017-11-01T09:23:33.680Z,12.08
2017-11-01T09:24:42.820Z,12.05
2017-11-01T09:25:53.301Z,11.98
2017-11-01T09:27:03.054Z,12.13
2017-11-01T09:28:12.781Z,12.16
2017-11-01T09:29:22.160Z,12.11
2017-11-01T09:30:31.878Z,12.18
2017-11-01T09:31:42.266Z,12
2017-11-01T09:32:52.691Z,12.04
2017-11-01T09:34:02.416Z,12.15
2017-11-01T09:35:11.770Z,12.26
2017-11-01T09:36:22.130Z,12.3
2017-11-01T09:37:32.169Z,12.29
2017-11-01T09:38:42.613Z,12.56
2017-11-01T09:39:52.337Z,12.81
2017-11-01T09:41:02.373Z,12.92
2017-11-01T09:42:12.189Z,12.95
2017-11-01T09:43:22.559Z,12.73
2017-11-01T09:44:32.622Z,12.79
2017-11-01T09:45:42.680Z,12.8
2017-11-01T09:46:52.063Z,12.85
2017-11-01T09:48:01.809Z,12.88
2017-11-01T09:49:11.855Z,13.09
2017-11-01T09:50:21.982Z,13.1
2017-11-01T09:51:31.764Z,13.17
2017-11-01T09:52:41.867Z,13.36
2017-11-01T09:53:52.365Z,13.41
2017-11-01T09:55:02.536Z,13.57
2017-11-01T09:56:11.897Z,13.51
2017-11-01T09:57:21.716Z,13.55
2017-11-01T09:58:30.917Z,13.32
2017-11-01T09:59:40.381Z,13.27
2017-11-01T10:00:49.822Z,13.09
2017-11-01T10:02:00.284Z,13.03
2017-11-01T10:03:10.101Z,13.01
2017-11-01T10:04:20.264Z,13.06
2017-11-01T10:05:30.858Z,13.06
2017-11-01T10:06:40.791Z,13.16
2017-11-01T10:07:51.163Z,13.21
2017-11-01T10:09:00.984Z,13.27
2017-11-01T10:10:10.517Z,13.5
2017-11-01T10:11:20.651Z,13.62
2017-11-01T10:12:30.536Z,13.51
2017-11-01T10:13:40.097Z,13.54
2017-11-01T10:14:49.787Z,13.63
2017-11-01T10:15:59.300Z,13.63
2017-11-01T10:17:09.514Z,13.63
2017-11-01T10:18:19.679Z,13.63
2017-11-01T10:19:29.453Z,13.84
2017-11-01T10:20:40.000Z,13.98
2017-11-01T10:21:50.065Z,13.98
2017-11-01T10:23:00.606Z,14.01
2017-11-01T10:24:10.146Z,13.59
2017-11-01T10:25:19.609Z,13.57
2017-11-01T10:26:29.756Z,13.46
2017-11-01T10:27:39.313Z,13.47
2017-11-01T10:28:48.742Z,13.47
2017-11-01T10:29:58.873Z,13.46
2017-11-01T10:31:08.744Z,13.38
2017-11-01T10:32:18.855Z,13.32
2017-11-01T10:33:29.013Z,13.17
2017-11-01T10:34:38.833Z,13.24
2017-11-01T10:35:49.222Z,13.21
2017-11-01T10:36:58.974Z,13.27
2017-11-01T10:38:08.719Z,13.16
2017-11-01T10:39:17.901Z,13.25
2017-11-01T10:40:27.940Z,13.16
2017-11-01T10:41:38.000Z,13.38
2017-11-01T10:42:48.522Z,13.48
2017-11-01T10:43:58.625Z,13.61
2017-11-01T10:45:07.984Z,13.79
2017-11-01T10:46:18.009Z,14.09
2017-11-01T10:47:28.080Z,14.19
2017-11-01T10:48:38.178Z,14.24
2017-11-01T10:49:48.577Z,14.2
2017-11-01T10:50:58.277Z,14.31
2017-11-01T10:52:08.061Z,14.39
2017-11-01T10:53:17.818Z,14.61
2017-11-01T10:54:27.930Z,14.53
2017-11-01T10:55:38.014Z,14.29
2017-11-01T10:56:48.208Z,14.29
2017-11-01T10:57:57.991Z,14.39
2017-11-01T10:59:07.843Z,14.21
2017-11-01T11:00:18.093Z,14.29
2017-11-01T11:01:28.412Z,14.21
2017-11-01T11:02:38.678Z,14.21
2017-11-01T11:03:48.594Z,14.16
2017-11-01T11:04:58.661Z,13.96
2017-11-01T11:06:09.237Z,13.93
2017-11-01T11:07:19.131Z,13.86
2017-11-01T11:08:28.275Z,14.08
2017-11-01T11:09:37.803Z,14.2
2017-11-01T11:10:47.790Z,14.26
2017-11-01T11:11:57.915Z,14.27
2017-11-01T11:13:08.133Z,14.29
2017-11-01T11:14:18.403Z,14.16
2017-11-01T11:15:28.180Z,14.35
2017-11-01T11:16:37.924Z,14.63
2017-11-01T11:17:47.784Z,14.44
2017-11-01T11:18:56.889Z,14.26
2017-11-01T11:20:07.024Z,14.38
2017-11-01T11:21:17.217Z,14.27
2017-11-01T11:22:27.012Z,14.09
2017-11-01T11:23:36.496Z,14.08
2017-11-01T11:24:45.810Z,14.04
2017-11-01T11:25:55.709Z,14.04
2017-11-01T11:27:05.761Z,13.93
2017-11-01T11:28:16.302Z,13.61
2017-11-01T11:29:26.144Z,13.76
2017-11-01T11:30:36.273Z,13.69
2017-11-01T11:31:45.363Z,13.75
2017-11-01T11:32:55.270Z,13.76
2017-11-01T11:34:05.022Z,13.8
2017-11-01T11:35:14.789Z,14.04
2017-11-01T11:36:24.978Z,14.12
2017-11-01T11:37:34.467Z,14.05
2017-11-01T11:38:44.672Z,14.09
2017-11-01T11:39:54.643Z,14.06
2017-11-01T11:41:05.181Z,14.27
2017-11-01T11:42:15.315Z,14.2
2017-11-01T11:43:24.800Z,14.19
2017-11-01T11:44:35.032Z,14.2
2017-11-01T11:45:45.096Z,13.93
2017-11-01T11:46:54.934Z,13.75
2017-11-01T11:48:05.220Z,13.76
2017-11-01T11:49:14.650Z,13.61
2017-11-01T11:50:24.081Z,13.63
2017-11-01T11:51:34.685Z,13.57
2017-11-01T11:52:45.149Z,13.51
2017-11-01T11:53:54.857Z,13.55
2017-11-01T11:55:04.277Z,13.55
2017-11-01T11:56:14.405Z,13.72
2017-11-01T11:57:24.131Z,13.83
2017-11-01T11:58:33.484Z,13.94
2017-11-01T11:59:43.191Z,13.91
2017-11-01T12:00:52.978Z,13.93
2017-11-01T12:02:02.368Z,13.93
2017-11-01T12:03:12.101Z,13.9
2017-11-01T12:04:21.964Z,13.76
2017-11-01T12:05:31.519Z,13.84
2017-11-01T12:06:41.587Z,13.72
2017-11-01T12:07:51.614Z,13.83
2017-11-01T12:09:00.971Z,13.86
2017-11-01T12:10:10.750Z,13.76
2017-11-01T12:11:20.470Z,13.94
2017-11-01T12:12:29.910Z,14.06
2017-11-01T12:13:39.931Z,14.08
2017-11-01T12:14:49.623Z,14.05
2017-11-01T12:15:59.689Z,14.26
2017-11-01T12:17:09.410Z,14.26
2017-11-01T12:18:19.834Z,14.38
2017-11-01T12:19:30.224Z,14.39
2017-11-01T12:20:40.242Z,14.38
2017-11-01T12:21:49.259Z,14.59
2017-11-01T12:22:58.301Z,14.63
2017-11-01T12:24:08.722Z,14.71
2017-11-01T12:25:18.521Z,14.8
2017-11-01T12:26:28.592Z,14.86
2017-11-01T12:27:38.654Z,14.94
2017-11-01T12:28:49.263Z,14.98
2017-11-01T12:29:59.224Z,15.07
2017-11-01T12:31:08.630Z,15.15
2017-11-01T12:32:18.351Z,15.09
2017-11-01T12:33:29.051Z,14.97
2017-11-01T12:34:39.310Z,14.83
2017-11-01T12:35:49.378Z,14.82
2017-11-01T12:36:59.557Z,14.85
2017-11-01T12:38:09.115Z,14.9
2017-11-01T12:39:19.229Z,14.87
2017-11-01T12:40:28.398Z,14.85
2017-11-01T12:41:38.584Z,14.97
2017-11-01T12:42:49.073Z,14.97
2017-11-01T12:43:59.362Z,14.95
2017-11-01T12:45:09.492Z,14.98
2017-11-01T12:46:18.847Z,14.85
2017-11-01T12:47:28.205Z,14.98
2017-11-01T12:48:37.574Z,15.04
2017-11-01T12:49:46.916Z,14.97
2017-11-01T12:50:57.370Z,15.04
2017-11-01T12:52:07.717Z,14.85
2017-11-01T12:53:17.062Z,14.91
2017-11-01T12:54:27.418Z,14.87
2017-11-01T12:55:36.097Z,15.04
2017-11-01T12:56:46.458Z,15.07
2017-11-01T12:57:56.475Z,15.16
2017-11-01T12:59:06.488Z,15.22
2017-11-01T13:00:15.844Z,15.33
2017-11-01T13:01:25.867Z,15.31
2017-11-01T13:02:35.554Z,15.33
2017-11-01T13:03:45.573Z,15.33
2017-11-01T13:04:55.615Z,15.34
2017-11-01T13:06:05.667Z,15.53
2017-11-01T13:07:15.357Z,15.59
2017-11-01T13:08:25.060Z,15.62
2017-11-01T13:09:34.072Z,15.7
2017-11-01T13:10:44.220Z,15.77
2017-11-01T13:11:53.634Z,15.74
2017-11-01T13:13:03.995Z,15.84
2017-11-01T13:14:13.340Z,15.74
2017-11-01T13:15:23.745Z,15.84
2017-11-01T13:16:33.144Z,15.71
2017-11-01T13:17:43.180Z,15.53
2017-11-01T13:18:53.870Z,15.55
2017-11-01T13:20:03.234Z,15.48
2017-11-01T13:21:12.929Z,15.58
2017-11-01T13:22:22.350Z,15.59
2017-11-01T13:23:32.367Z,15.71
2017-11-01T13:24:41.721Z,15.84
2017-11-01T13:25:52.086Z,15.88
2017-11-01T13:27:01.776Z,15.92
2017-11-01T13:28:10.813Z,16.07
2017-11-01T13:29:21.166Z,16.07
2017-11-01T13:30:31.193Z,16.17
2017-11-01T13:31:40.220Z,16.25
2017-11-01T13:32:49.579Z,16.07
2017-11-01T13:33:59.608Z,16.17
2017-11-01T13:35:09.629Z,16.17
2017-11-01T13:36:19.980Z,16.3
2017-11-01T13:37:29.995Z,16.32
2017-11-01T13:38:39.339Z,16.36
2017-11-01T13:39:48.353Z,16.34
2017-11-01T13:40:58.037Z,16.37
2017-11-01T13:42:07.717Z,16.32
2017-11-01T13:43:17.400Z,16.3
2017-11-01T13:44:27.753Z,16.33
2017-11-01T13:45:37.436Z,16.27
2017-11-01T13:46:47.821Z,16.25
2017-11-01T13:47:57.848Z,16.3
2017-11-01T13:49:07.872Z,16.13
2017-11-01T13:50:17.618Z,16.3
2017-11-01T13:51:27.261Z,16.29
2017-11-01T13:52:37.278Z,16.11
2017-11-01T13:53:46.639Z,16.08
2017-11-01T13:54:55.325Z,16.14
2017-11-01T13:56:05.030Z,16.22
2017-11-01T13:57:14.375Z,16.25
2017-11-01T13:58:24.435Z,16.22
2017-11-01T13:59:34.116Z,16.18
2017-11-01T14:00:43.797Z,16.26
2017-11-01T14:01:53.812Z,16.32
2017-11-01T14:03:03.836Z,16.36
2017-11-01T14:04:13.516Z,16.3
2017-11-01T14:05:23.594Z,16.4
2017-11-01T14:06:32.952Z,16.44
2017-11-01T14:07:43.026Z,16.51
2017-11-01T14:08:52.724Z,16.51
2017-11-01T14:10:02.530Z,16.59
2017-11-01T14:11:11.543Z,16.63
2017-11-01T14:12:21.553Z,16.57
2017-11-01T14:13:31.004Z,16.57
2017-11-01T14:14:40.365Z,16.42
2017-11-01T14:15:50.832Z,16.34
2017-11-01T14:17:01.005Z,16.18
2017-11-01T14:18:11.361Z,16.17
2017-11-01T14:19:21.414Z,16.18
2017-11-01T14:20:31.784Z,16.18
2017-11-01T14:21:41.516Z,16.14
2017-11-01T14:22:51.199Z,16.06
2017-11-01T14:24:01.568Z,16.22
2017-11-01T14:25:11.815Z,16.07
2017-11-01T14:26:21.165Z,16.1
2017-11-01T14:27:31.201Z,16.03
2017-11-01T14:28:40.888Z,16.1
2017-11-01T14:29:50.602Z,15.85
2017-11-01T14:31:00.307Z,15.86
2017-11-01T14:32:10.736Z,15.8
2017-11-01T14:33:20.772Z,15.89
2017-11-01T14:34:30.790Z,15.89
2017-11-01T14:35:40.132Z,15.91
2017-11-01T14:36:49.146Z,15.89
2017-11-01T14:37:58.826Z,15.91
2017-11-01T14:39:08.545Z,15.86
2017-11-01T14:40:18.232Z,15.84
2017-11-01T14:41:28.333Z,15.89
2017-11-01T14:42:38.415Z,15.77
2017-11-01T14:43:48.142Z,15.8
2017-11-01T14:44:58.238Z,15.86
2017-11-01T14:46:07.931Z,15.77
2017-11-01T14:47:16.952Z,15.76
2017-11-01T14:48:26.664Z,15.6
2017-11-01T14:49:36.800Z,15.56
2017-11-01T14:50:46.877Z,15.56
2017-11-01T14:51:57.089Z,15.56
2017-11-01T14:53:07.146Z,15.35
2017-11-01T14:54:16.170Z,15.27
2017-11-01T14:55:25.856Z,15.3
2017-11-01T14:56:35.540Z,15.27
2017-11-01T14:57:45.948Z,15.27
2017-11-01T14:58:55.333Z,15.22
2017-11-01T15:00:05.024Z,15.22
2017-11-01T15:01:14.742Z,15.18
2017-11-01T15:02:24.429Z,15.13